Segui, Argentina
Current Conditions -  °F | °C
As of 1:00 PM on Monday 24 Nov 2014 (Local Time) from SAAR Reporting Station
Overcast Overcast  
Wind Chill: 77°   Ceiling: 4500
Heat Index: 79°   Visibility: 6mi
Dew Point: 66°   Wind: 7mph
Humidity: 69%   Direction: 50°NE
Pressure: 29.77"   Gusts: NA
Location:  31.95°S, 60.13°W
Report Text: SAAR 241600Z 05006KT 9999 FEW018 SCT022OVC045 25/19 Q1008 RETS
Loading
Personal Weather Stations






























Interactive Weather Map New forecast layout! Learn more

10-Day Weather Forecast

Advertisements
Track Severe Weather on mobile